Time;durP1;ratioP1;P1;durP2;ratioP2;P2;SDS_P1;SDS_P2;PMS_P1;PMS_P2;Temp;Humidity;BMP_temperature;BMP_pressure;BME280_temperature;BME280_humidity;BME280_pressure;Samples;Min_cycle;Max_cycle;Signal;HPM_P1;HPM_P2
2021/08/03 00:00:38;;;;;;;5.35;2.03;;;;;;;28.37;40.73;99591.91;4500218;31;34827;-63
2021/08/03 00:03:07;;;;;;;9.82;2.00;;;;;;;28.37;40.88;99591.91;4498908;31;33631;-65
2021/08/03 00:05:39;;;;;;;7.12;2.03;;;;;;;28.38;40.94;99593.53;4500126;31;34734;-63
2021/08/03 00:08:16;;;;;;;4.93;1.75;;;;;;;28.39;40.91;99597.94;4499953;31;34104;-66
2021/08/03 00:10:43;;;;;;;6.03;2.12;;;;;;;28.39;40.88;99598.75;4498886;31;34005;-63
2021/08/03 00:13:11;;;;;;;6.20;2.10;;;;;;;28.39;40.90;99592.44;4498927;31;33273;-63
2021/08/03 00:15:39;;;;;;;6.55;2.00;;;;;;;28.38;40.92;99597.09;4498678;31;33950;-63
2021/08/03 00:18:06;;;;;;;4.80;2.00;;;;;;;28.38;40.91;99596.28;4500046;31;33965;-64
2021/08/03 00:20:34;;;;;;;6.12;2.12;;;;;;;28.38;40.91;99596.28;4498871;31;34090;-62
2021/08/03 00:23:02;;;;;;;9.93;1.95;;;;;;;28.37;40.94;99595.47;4500094;31;33555;-63
2021/08/03 00:25:29;;;;;;;4.57;1.90;;;;;;;28.39;40.88;99597.94;4500084;31;34633;-62
2021/08/03 00:27:57;;;;;;;3.90;1.77;;;;;;;28.38;40.92;99605.34;4498191;31;33638;-66
2021/08/03 00:30:25;;;;;;;5.22;1.73;;;;;;;28.38;40.89;99605.34;4499854;31;33986;-65
2021/08/03 00:32:53;;;;;;;6.65;2.12;;;;;;;28.38;40.88;99610.00;4499436;31;34607;-65
2021/08/03 00:35:21;;;;;;;7.75;2.85;;;;;;;28.38;40.91;99607.25;4498569;31;34160;-63
2021/08/03 00:37:49;;;;;;;4.37;1.90;;;;;;;28.38;40.88;99616.31;4500240;31;33725;-63
2021/08/03 00:40:17;;;;;;;5.80;2.12;;;;;;;28.37;40.69;99609.19;4499475;31;34357;-64
2021/08/03 00:42:45;;;;;;;6.85;2.12;;;;;;;28.37;40.68;99614.66;4486940;31;33737;-63
2021/08/03 00:45:14;;;;;;;5.15;1.98;;;;;;;28.36;40.55;99613.03;4484640;32;34162;-66
2021/08/03 00:47:42;;;;;;;4.35;2.00;;;;;;;28.37;40.53;99611.09;4484239;32;36033;-62
2021/08/03 00:50:10;;;;;;;4.80;2.15;;;;;;;28.35;40.56;99605.88;4484356;32;34828;-62
2021/08/03 00:52:39;;;;;;;3.85;1.90;;;;;;;28.35;40.59;99613.25;4484463;32;34461;-62
2021/08/03 00:55:08;;;;;;;4.00;1.80;;;;;;;28.34;40.73;99617.06;4484553;32;33527;-62
2021/08/03 00:57:36;;;;;;;3.50;1.87;;;;;;;28.35;40.78;99619.59;4484554;32;34167;-66
2021/08/03 01:00:06;;;;;;;3.08;1.65;;;;;;;28.36;40.78;99614.94;4498843;31;33874;-64
2021/08/03 01:02:33;;;;;;;4.93;2.00;;;;;;;28.35;40.79;99619.59;4500434;31;34212;-64
2021/08/03 01:05:01;;;;;;;4.78;1.70;;;;;;;28.35;40.84;99611.38;4499519;31;33887;-63
2021/08/03 01:07:30;;;;;;;8.38;1.92;;;;;;;28.34;40.88;99617.06;4499731;31;34330;-65
2021/08/03 01:10:16;;;;;;;4.45;1.98;;;;;;;28.34;40.95;99608.84;4499850;31;34147;-63
2021/08/03 01:13:16;;;;;;;5.55;1.80;;;;;;;28.35;40.75;99603.16;4499838;31;34113;-63
2021/08/03 01:15:55;;;;;;;2.65;1.95;;;;;;;28.37;40.87;99611.09;4467110;31;34156;-64
2021/08/03 01:19:00;;;;;;;5.37;2.25;;;;;;;28.35;40.64;99618.75;4482702;32;34734;-65
2021/08/03 01:21:33;;;;;;;8.27;1.98;;;;;;;28.32;40.85;99622.84;4480035;32;34614;-64
2021/08/03 01:24:17;;;;;;;3.83;1.67;;;;;;;28.32;40.83;99620.09;4484114;32;33024;-65
2021/08/03 01:27:09;;;;;;;4.93;2.20;;;;;;;28.32;40.83;99624.75;4482582;32;33871;-65
2021/08/03 01:29:40;;;;;;;9.30;1.92;;;;;;;28.32;40.82;99624.75;4484092;32;34378;-66
2021/08/03 01:32:09;;;;;;;5.72;2.10;;;;;;;28.31;40.74;99628.59;4484595;31;34065;-63
2021/08/03 01:34:39;;;;;;;3.92;1.98;;;;;;;28.32;40.73;99622.00;4498243;31;33811;-62
2021/08/03 01:37:07;;;;;;;2.65;1.75;;;;;;;28.31;40.71;99623.94;4499484;31;33961;-64
2021/08/03 01:39:40;;;;;;;3.37;1.85;;;;;;;28.31;40.74;99617.63;4495414;31;103281;-65
2021/08/03 01:42:08;;;;;;;3.92;1.90;;;;;;;28.30;40.81;99626.91;4499358;31;34643;-62
2021/08/03 01:44:36;;;;;;;7.03;1.70;;;;;;;28.30;40.84;99624.19;4499698;31;34246;-64
2021/08/03 01:47:04;;;;;;;5.90;1.48;;;;;;;28.30;40.61;99627.75;4498408;31;33761;-62
2021/08/03 01:49:36;;;;;;;5.28;1.92;;;;;;;28.30;40.74;99625.00;4499692;31;34214;-65
2021/08/03 01:52:07;;;;;;;6.53;1.98;;;;;;;28.30;40.80;99622.25;4498361;31;33807;-66
2021/08/03 01:54:34;;;;;;;4.60;1.90;;;;;;;28.30;40.77;99624.19;4499615;31;33401;-65
2021/08/03 01:57:03;;;;;;;4.37;2.15;;;;;;;28.30;40.73;99621.44;4499449;31;34465;-64
2021/08/03 01:59:32;;;;;;;;;;;;;;;28.30;40.82;99630.50;4485884;31;34251;-64
2021/08/03 02:02:00;;;;;;;4.10;1.95;;;;;;;28.42;40.69;99622.94;4498569;31;34349;-62
2021/08/03 02:04:28;;;;;;;4.90;1.90;;;;;;;28.33;40.87;99616.25;4485298;31;33451;-66
2021/08/03 02:06:56;;;;;;;5.95;1.87;;;;;;;28.31;40.91;99626.69;4492318;31;34874;-65
2021/08/03 02:09:24;;;;;;;3.58;1.90;;;;;;;28.29;40.95;99626.09;4481814;31;33398;-66
2021/08/03 02:12:15;;;;;;;3.65;1.85;;;;;;;28.28;40.85;99629.94;4490573;31;34031;-65
2021/08/03 02:14:46;;;;;;;3.92;1.80;;;;;;;28.30;40.78;99621.44;4491574;31;33198;-67
2021/08/03 02:17:19;;;;;;;4.85;1.87;;;;;;;28.27;40.87;99619.22;4497232;31;35153;-67
2021/08/03 02:19:47;;;;;;;2.53;1.70;;;;;;;28.27;40.96;99621.97;4499111;31;34889;-63
2021/08/03 02:22:16;;;;;;;6.55;2.22;;;;;;;28.27;40.80;99628.28;4498583;31;34441;-68
2021/08/03 02:24:45;;;;;;;3.65;1.73;;;;;;;28.27;40.83;99625.53;4497855;31;34076;-68
2021/08/03 02:27:12;;;;;;;5.28;1.95;;;;;;;28.28;40.79;99631.84;4492344;31;34859;-66
2021/08/03 02:29:42;;;;;;;6.20;1.95;;;;;;;28.28;40.76;99634.59;4493947;31;34174;-69
2021/08/03 02:32:27;;;;;;;5.05;2.10;;;;;;;28.27;40.85;99630.22;4484356;31;34173;-65
2021/08/03 02:35:09;;;;;;;4.57;2.10;;;;;;;28.28;40.85;99626.38;4483332;31;33598;-65
2021/08/03 02:37:38;;;;;;;3.58;2.00;;;;;;;28.28;40.75;99629.13;4482314;32;33608;-66
2021/08/03 02:40:07;;;;;;;4.03;2.08;;;;;;;28.27;40.85;99639.25;4496249;31;34563;-68
2021/08/03 02:42:41;;;;;;;3.72;1.70;;;;;;;28.28;40.76;99640.09;4497710;31;35356;-68
2021/08/03 02:45:12;;;;;;;3.62;1.87;;;;;;;28.27;40.62;99638.44;4468278;32;33514;-68
2021/08/03 02:47:47;;;;;;;3.22;1.90;;;;;;;28.26;40.81;99628.53;4496609;31;33943;-65
2021/08/03 02:50:15;;;;;;;3.70;1.83;;;;;;;28.26;40.88;99637.63;4466889;32;35007;-67
2021/08/03 02:52:44;;;;;;;4.50;1.90;;;;;;;28.27;40.90;99633.78;4481787;32;34180;-68
2021/08/03 02:55:19;;;;;;;4.87;1.93;;;;;;;28.25;41.02;99638.69;4481869;31;33604;-67
2021/08/03 02:57:56;;;;;;;5.82;1.95;;;;;;;28.26;41.02;99637.63;4484428;31;34393;-64
2021/08/03 03:00:24;;;;;;;5.85;2.03;;;;;;;28.26;41.08;99642.25;4469487;31;33982;-64
2021/08/03 03:02:53;;;;;;;2.70;1.70;;;;;;;28.27;41.01;99638.44;4488856;31;34802;-66
2021/08/03 03:05:28;;;;;;;6.78;2.22;;;;;;;28.26;40.96;99647.75;4479772;31;34954;-67
2021/08/03 03:08:01;;;;;;;4.05;1.87;;;;;;;28.26;41.00;99653.22;4483786;31;34063;-67
2021/08/03 03:10:30;;;;;;;5.22;1.85;;;;;;;28.26;41.18;99650.47;4488314;31;33591;-66
2021/08/03 03:13:01;;;;;;;5.20;1.95;;;;;;;28.26;40.98;99659.56;4496564;31;33800;-67
2021/08/03 03:15:29;;;;;;;3.50;1.98;;;;;;;28.25;41.00;99657.87;4497767;31;33901;-66
2021/08/03 03:17:57;;;;;;;3.42;1.90;;;;;;;28.25;41.02;99663.38;4496345;31;34070;-68
2021/08/03 03:20:25;;;;;;;3.83;1.60;;;;;;;28.25;40.98;99662.56;4497278;31;34114;-66
2021/08/03 03:22:53;;;;;;;7.43;2.25;;;;;;;28.23;40.98;99658.16;4497981;31;34434;-67
2021/08/03 03:25:22;;;;;;;7.78;2.10;;;;;;;28.23;40.99;99666.37;4487740;31;34135;-65
2021/08/03 03:27:53;;;;;;;3.58;1.62;;;;;;;28.23;41.06;99662.81;4483981;31;33807;-69
2021/08/03 03:30:21;;;;;;;6.75;2.10;;;;;;;28.23;40.97;99669.12;4500792;31;35069;-67
2021/08/03 03:32:48;;;;;;;5.35;2.00;;;;;;;28.24;40.93;99678.19;4486273;31;34041;-67
2021/08/03 03:35:18;;;;;;;5.12;1.80;;;;;;;28.23;40.83;99682.84;4483422;31;33596;-67
2021/08/03 03:37:47;;;;;;;;;;;;;;;28.22;40.79;99672.16;4488970;31;33847;-64
2021/08/03 03:40:15;;;;;;;4.15;1.87;;;;;;;28.35;40.42;99679.13;4484438;32;34257;-65
2021/08/03 03:42:43;;;;;;;5.35;1.90;;;;;;;28.25;40.70;99677.09;4484807;32;34490;-67
2021/08/03 03:45:12;;;;;;;5.57;1.90;;;;;;;28.24;40.72;99675.44;4483425;32;32967;-66
2021/08/03 03:47:42;;;;;;;4.43;2.10;;;;;;;28.22;40.56;99678.47;4483012;32;34980;-65
2021/08/03 03:50:16;;;;;;;2.85;1.75;;;;;;;28.21;40.64;99686.94;4477517;32;34123;-65
2021/08/03 03:52:47;;;;;;;4.03;2.03;;;;;;;28.21;40.68;99687.78;4483933;32;33824;-66
2021/08/03 03:55:20;;;;;;;6.40;2.28;;;;;;;28.21;40.56;99689.69;4485515;31;33816;-68
2021/08/03 03:57:47;;;;;;;3.30;2.05;;;;;;;28.21;40.59;99685.03;4478066;31;34034;-66
2021/08/03 04:00:15;;;;;;;3.45;2.05;;;;;;;28.20;40.58;99686.09;4484591;31;34700;-64
2021/08/03 04:02:43;;;;;;;3.53;1.90;;;;;;;28.21;40.65;99685.03;4495892;31;35014;-63
2021/08/03 04:05:13;;;;;;;5.37;2.05;;;;;;;28.19;40.67;99681.72;4480492;32;33652;-65
2021/08/03 04:07:49;;;;;;;9.90;2.27;;;;;;;28.21;40.71;99686.94;4498687;31;34179;-62
2021/08/03 04:10:18;;;;;;;5.40;2.30;;;;;;;28.20;40.70;99677.88;4500243;31;35313;-65
2021/08/03 04:12:47;;;;;;;3.90;2.05;;;;;;;28.21;40.76;99685.03;4500749;31;34251;-66
2021/08/03 04:15:15;;;;;;;4.97;1.90;;;;;;;28.21;40.74;99686.94;4491457;31;33303;-62
2021/08/03 04:17:42;;;;;;;6.37;2.12;;;;;;;28.21;40.76;99686.94;4500594;31;33855;-62
2021/08/03 04:20:11;;;;;;;4.03;2.28;;;;;;;28.20;40.60;99694.34;4500290;31;34006;-64
2021/08/03 04:22:38;;;;;;;4.50;1.90;;;;;;;28.19;40.49;99687.19;4500359;31;33975;-63
2021/08/03 04:25:07;;;;;;;3.80;2.00;;;;;;;28.19;40.70;99691.88;4500633;31;33922;-66
2021/08/03 04:27:34;;;;;;;4.90;2.15;;;;;;;28.19;40.79;99686.38;4499129;31;33979;-65
2021/08/03 04:30:02;;;;;;;3.25;1.85;;;;;;;28.19;40.84;99683.63;4500444;31;33953;-63
2021/08/03 04:32:29;;;;;;;4.12;1.85;;;;;;;28.18;40.89;99691.03;4500515;31;33868;-66
2021/08/03 04:34:57;;;;;;;6.10;2.00;;;;;;;28.18;40.93;99685.56;4500387;31;33563;-66
2021/08/03 04:37:24;;;;;;;4.10;1.87;;;;;;;28.17;41.00;99683.91;4500456;31;34064;-64
2021/08/03 04:39:52;;;;;;;4.62;2.08;;;;;;;28.18;41.03;99680.06;4500093;31;33630;-63
2021/08/03 04:42:20;;;;;;;5.72;2.20;;;;;;;28.17;41.04;99680.34;4498379;31;33598;-63
2021/08/03 04:44:50;;;;;;;4.95;2.10;;;;;;;28.18;41.04;99684.72;4500717;31;33818;-64
2021/08/03 04:47:18;;;;;;;3.60;2.10;;;;;;;28.18;41.00;99682.81;4500726;31;33893;-65
2021/08/03 04:49:46;;;;;;;6.43;2.58;;;;;;;28.18;40.99;99691.03;4500526;31;33989;-66
2021/08/03 04:52:13;;;;;;;4.30;1.87;;;;;;;28.18;40.95;99682.00;4489365;31;34352;-62
2021/08/03 04:54:41;;;;;;;8.02;2.03;;;;;;;28.18;40.93;99682.00;4484951;31;33698;-66
2021/08/03 04:57:08;;;;;;;5.55;2.50;;;;;;;28.18;40.90;99682.00;4484638;31;33942;-65
2021/08/03 04:59:37;;;;;;;3.75;2.00;;;;;;;28.18;40.84;99682.00;4484543;32;34273;-64
2021/08/03 05:02:05;;;;;;;6.23;2.10;;;;;;;28.17;40.92;99678.41;4484180;32;35082;-66
2021/08/03 05:04:34;;;;;;;3.92;1.73;;;;;;;28.18;40.84;99685.56;4484047;32;34793;-66
2021/08/03 05:07:05;;;;;;;5.57;2.12;;;;;;;28.17;40.81;99686.66;4484372;32;34654;-66
2021/08/03 05:09:32;;;;;;;7.45;2.37;;;;;;;28.18;40.83;99692.97;4484256;32;34828;-66
2021/08/03 05:12:00;;;;;;;5.40;2.17;;;;;;;28.18;40.71;99692.97;4484274;32;33985;-66
2021/08/03 05:14:29;;;;;;;3.28;2.00;;;;;;;28.17;40.82;99705.84;4484614;32;33369;-65
2021/08/03 05:16:57;;;;;;;4.22;2.10;;;;;;;28.17;40.85;99714.09;4483775;32;33876;-62
2021/08/03 05:19:24;;;;;;;4.25;1.85;;;;;;;28.17;40.92;99703.13;4483984;32;34886;-66
2021/08/03 05:21:52;;;;;;;4.97;2.15;;;;;;;28.17;40.90;99703.13;4483933;32;34654;-63
2021/08/03 05:24:25;;;;;;;3.40;1.85;;;;;;;28.18;40.91;99706.69;4484140;32;34331;-66
2021/08/03 05:26:54;;;;;;;3.42;2.00;;;;;;;28.17;40.93;99714.09;4484147;32;34131;-63
2021/08/03 05:29:21;;;;;;;3.78;2.00;;;;;;;28.18;40.92;99712.16;4484495;32;33974;-63
2021/08/03 05:31:49;;;;;;;6.20;2.28;;;;;;;28.18;40.93;99712.16;4483852;32;33914;-63
2021/08/03 05:34:16;;;;;;;3.35;1.67;;;;;;;28.17;40.93;99716.00;4483781;32;33376;-63
2021/08/03 05:36:44;;;;;;;4.78;2.30;;;;;;;28.17;40.92;99714.09;4483642;32;34040;-62
2021/08/03 05:39:12;;;;;;;7.50;2.05;;;;;;;28.17;40.95;99716.00;4483384;32;34181;-63
2021/08/03 05:41:42;;;;;;;4.47;1.90;;;;;;;28.18;40.92;99717.66;4483362;32;35701;-64
2021/08/03 05:44:10;;;;;;;5.78;2.05;;;;;;;28.17;40.96;99711.34;4483657;32;33984;-64
2021/08/03 05:46:37;;;;;;;6.85;1.87;;;;;;;28.18;40.98;99695.72;4482216;32;32547;-65
2021/08/03 05:49:05;;;;;;;11.57;2.05;;;;;;;28.18;41.00;99706.69;4483542;32;33719;-64
2021/08/03 05:51:32;;;;;;;6.70;2.05;;;;;;;28.18;41.02;99704.75;4489682;31;34083;-65
2021/08/03 05:54:00;;;;;;;6.22;2.33;;;;;;;28.17;40.96;99711.34;4499477;31;34105;-64
2021/08/03 05:56:27;;;;;;;7.32;2.00;;;;;;;28.17;41.00;99702.28;4499353;31;34649;-62
2021/08/03 05:58:55;;;;;;;5.65;2.00;;;;;;;28.18;41.04;99714.91;4499257;31;33778;-62
2021/08/03 06:01:22;;;;;;;5.80;2.05;;;;;;;28.18;41.09;99709.41;4499481;31;33466;-63
2021/08/03 06:03:50;;;;;;;6.43;2.17;;;;;;;28.17;41.10;99714.09;4499162;31;34560;-62
2021/08/03 06:06:19;;;;;;;9.13;2.37;;;;;;;28.17;41.11;99716.81;4499474;31;34115;-62
2021/08/03 06:08:46;;;;;;;4.45;2.40;;;;;;;28.18;41.15;99717.66;4498064;31;33918;-62
2021/08/03 06:11:22;;;;;;;4.68;1.70;;;;;;;28.19;41.15;99722.03;4497985;31;34619;-63
2021/08/03 06:13:56;;;;;;;6.03;1.90;;;;;;;28.19;41.18;99722.03;4498312;31;33161;-66
2021/08/03 06:16:25;;;;;;;5.72;2.00;;;;;;;28.18;41.21;99726.72;4499528;31;33569;-65
2021/08/03 06:18:53;;;;;;;4.20;1.77;;;;;;;28.18;41.22;99734.94;4499531;31;34818;-62
2021/08/03 06:21:21;;;;;;;7.80;2.20;;;;;;;28.18;41.17;99737.69;4484785;31;34049;-64
2021/08/03 06:23:49;;;;;;;5.30;2.35;;;;;;;28.18;41.20;99734.94;4499043;31;34367;-64
2021/08/03 06:26:17;;;;;;;6.30;2.30;;;;;;;28.17;41.25;99736.03;4499134;31;34478;-64
2021/08/03 06:28:48;;;;;;;5.70;1.70;;;;;;;28.18;41.25;99742.34;4485035;31;34027;-63
2021/08/03 06:31:16;;;;;;;8.48;2.28;;;;;;;28.18;41.31;99748.66;4499320;31;34103;-62
2021/08/03 06:33:47;;;;;;;6.93;2.00;;;;;;;28.20;41.29;99743.72;4499031;31;33691;-63
2021/08/03 06:36:15;;;;;;;7.62;1.92;;;;;;;28.21;41.33;99744.53;4498658;31;34818;-66
2021/08/03 06:38:42;;;;;;;7.55;2.08;;;;;;;28.21;41.28;99747.28;4498814;31;35047;-66
2021/08/03 06:41:32;;;;;;;5.45;2.05;;;;;;;28.21;41.23;99750.03;4499017;31;34128;-63
2021/08/03 06:44:14;;;;;;;7.45;1.98;;;;;;;28.19;41.22;99742.06;4499506;31;33293;-64
2021/08/03 06:46:44;;;;;;;7.32;1.70;;;;;;;28.23;41.13;99745.94;4499139;31;34839;-62
2021/08/03 06:49:13;;;;;;;5.68;2.03;;;;;;;28.21;41.24;99750.03;4499133;31;34029;-64
2021/08/03 06:51:41;;;;;;;5.53;2.03;;;;;;;28.20;41.24;99745.62;4499114;31;33994;-63
2021/08/03 06:54:11;;;;;;;5.75;1.90;;;;;;;28.21;41.27;99741.81;4499118;31;32916;-62
2021/08/03 06:56:43;;;;;;;;;;;;;;;28.19;41.30;99744.81;4499366;31;34041;-65
2021/08/03 06:59:11;;;;;;;3.40;2.00;;;;;;;28.30;41.00;99742.16;4498974;31;34437;-64
2021/08/03 07:01:51;;;;;;;8.32;2.20;;;;;;;28.22;41.15;99748.97;4499032;31;34835;-66
2021/08/03 07:04:22;;;;;;;3.70;1.75;;;;;;;28.19;41.31;99755.78;4498511;31;33538;-66
2021/08/03 07:06:54;;;;;;;4.78;2.20;;;;;;;28.19;41.33;99752.22;4499921;31;33848;-63
2021/08/03 07:09:24;;;;;;;3.45;1.98;;;;;;;28.19;41.39;99761.28;4499925;31;33780;-66
2021/08/03 07:11:55;;;;;;;4.72;1.70;;;;;;;28.18;41.39;99754.12;4499273;31;34941;-66
2021/08/03 07:14:24;;;;;;;5.72;1.90;;;;;;;28.19;41.37;99753.03;4501386;31;34263;-65
2021/08/03 07:16:53;;;;;;;5.43;1.85;;;;;;;28.20;41.21;99749.22;4501106;31;34613;-62
2021/08/03 07:19:22;;;;;;;4.37;1.80;;;;;;;28.20;41.19;99746.47;4500953;31;33657;-67
2021/08/03 07:21:50;;;;;;;10.73;1.90;;;;;;;28.18;41.28;99740.41;4500920;31;34408;-63
2021/08/03 07:24:18;;;;;;;4.47;1.80;;;;;;;28.20;41.42;99740.97;4501293;31;33884;-62
2021/08/03 07:26:45;;;;;;;10.20;2.28;;;;;;;28.19;41.49;99738.50;4501233;31;33785;-64
2021/08/03 07:29:13;;;;;;;8.20;1.80;;;;;;;28.21;41.51;99733.56;4500889;31;34517;-62
2021/08/03 07:31:43;;;;;;;6.95;1.98;;;;;;;28.22;41.50;99733.34;4500957;31;34056;-63
2021/08/03 07:34:11;;;;;;;3.28;1.87;;;;;;;28.22;41.52;99725.09;4500949;31;33465;-63
2021/08/03 07:36:38;;;;;;;9.13;2.30;;;;;;;28.23;41.53;99729.50;4500966;31;34016;-63
2021/08/03 07:39:07;;;;;;;5.75;1.87;;;;;;;28.24;41.51;99730.31;4500864;31;34111;-64
2021/08/03 07:41:34;;;;;;;6.32;1.70;;;;;;;28.23;41.50;99732.25;4499543;31;34049;-63
2021/08/03 07:44:02;;;;;;;6.07;1.70;;;;;;;28.25;41.47;99742.13;4500740;31;33272;-64
2021/08/03 07:46:31;;;;;;;6.18;2.00;;;;;;;28.25;41.45;99739.38;4500968;31;34038;-64
2021/08/03 07:48:58;;;;;;;8.10;1.83;;;;;;;28.24;41.44;99738.56;4499671;31;34264;-64
2021/08/03 07:51:26;;;;;;;5.97;1.65;;;;;;;28.25;41.44;99734.72;4499568;31;33856;-64
2021/08/03 07:53:53;;;;;;;7.15;2.22;;;;;;;28.26;41.39;99746.50;4493666;31;33630;-62
2021/08/03 07:56:21;;;;;;;7.15;2.35;;;;;;;28.26;41.48;99749.25;4500680;31;33942;-63
2021/08/03 07:58:49;;;;;;;5.30;2.15;;;;;;;28.28;41.55;99752.59;4500632;31;34008;-62
2021/08/03 08:01:20;;;;;;;10.73;1.87;;;;;;;28.30;41.56;99753.97;4500608;31;34832;-63
2021/08/03 08:03:48;;;;;;;7.12;1.75;;;;;;;28.30;41.64;99753.12;4500537;31;33534;-62
2021/08/03 08:06:15;;;;;;;7.35;1.75;;;;;;;28.30;41.68;99761.38;4500560;31;34052;-62
2021/08/03 08:08:43;;;;;;;6.28;2.17;;;;;;;28.32;41.67;99781.16;4499255;31;33932;-63
2021/08/03 08:11:11;;;;;;;6.50;1.80;;;;;;;28.32;41.72;99783.91;4492823;31;34178;-63
2021/08/03 08:13:38;;;;;;;5.93;1.80;;;;;;;28.31;41.81;99787.75;4484538;32;33556;-63
2021/08/03 08:16:06;;;;;;;6.05;1.80;;;;;;;28.31;41.78;99795.97;4482292;32;33325;-63
2021/08/03 08:18:34;;;;;;;7.10;2.10;;;;;;;28.31;41.83;99796.81;4484721;32;33635;-63
2021/08/03 08:21:02;;;;;;;4.97;1.70;;;;;;;28.32;41.82;99786.66;4484656;32;34639;-63
2021/08/03 08:23:30;;;;;;;4.32;1.80;;;;;;;28.30;41.92;99789.63;4484226;31;33535;-63
2021/08/03 08:25:58;;;;;;;8.05;1.87;;;;;;;28.31;41.98;99779.50;4484409;32;34373;-63
2021/08/03 08:28:26;;;;;;;6.45;1.90;;;;;;;28.31;41.96;99783.09;4484362;32;34202;-63
2021/08/03 08:30:53;;;;;;;4.93;1.90;;;;;;;28.32;42.04;99789.41;4484215;32;33536;-63
2021/08/03 08:33:21;;;;;;;4.37;1.60;;;;;;;28.34;41.95;99789.94;4498761;31;33428;-63
2021/08/03 08:35:48;;;;;;;2.97;1.42;;;;;;;28.35;41.99;99788.88;4499682;31;33905;-63
2021/08/03 08:38:16;;;;;;;4.20;1.87;;;;;;;28.37;41.99;99787.56;4500010;31;34245;-63
2021/08/03 08:40:44;;;;;;;4.15;1.42;;;;;;;28.40;41.98;99788.97;4500570;31;34500;-62
2021/08/03 08:43:13;;;;;;;3.90;1.90;;;;;;;28.40;42.00;99787.03;4500354;31;33695;-63
2021/08/03 08:45:45;;;;;;;5.32;1.83;;;;;;;28.40;42.01;99786.22;4499764;31;34084;-64
2021/08/03 08:48:13;;;;;;;3.10;1.40;;;;;;;28.41;42.09;99787.87;4500056;31;34373;-64
2021/08/03 08:50:40;;;;;;;5.93;2.17;;;;;;;28.40;42.08;99783.47;4498188;31;33640;-64
2021/08/03 08:53:08;;;;;;;5.37;1.75;;;;;;;28.39;42.17;99788.09;4484463;31;33521;-64
2021/08/03 08:55:36;;;;;;;5.12;1.75;;;;;;;28.40;42.17;99775.25;4499747;31;34746;-62
2021/08/03 08:58:03;;;;;;;4.32;2.03;;;;;;;28.42;42.15;99773.06;4500177;31;33605;-63
2021/08/03 09:00:31;;;;;;;4.60;1.90;;;;;;;28.44;42.16;99765.37;4500132;31;34324;-64
2021/08/03 09:02:59;;;;;;;3.67;1.48;;;;;;;28.42;42.23;99759.31;4498712;31;33550;-64
2021/08/03 09:05:32;;;;;;;5.45;1.70;;;;;;;28.45;42.18;99750.59;4499969;31;34199;-62
2021/08/03 09:08:01;;;;;;;2.60;1.42;;;;;;;28.42;42.24;99746.44;4499978;31;33739;-62
2021/08/03 09:10:35;;;;;;;4.30;1.60;;;;;;;28.44;42.24;99738.75;4500024;31;33938;-63
2021/08/03 09:13:10;;;;;;;4.30;1.62;;;;;;;28.47;42.22;99737.41;4500310;31;34273;-62
2021/08/03 09:15:43;;;;;;;3.17;1.55;;;;;;;28.46;42.27;99738.50;4500244;31;34034;-63
2021/08/03 09:18:14;;;;;;;4.60;1.80;;;;;;;28.48;42.22;99734.41;4500235;31;34913;-63
2021/08/03 09:20:41;;;;;;;;;;;;;;;28.43;42.39;99737.09;4500573;31;34722;-63
2021/08/03 09:23:09;;;;;;;3.97;1.65;;;;;;;28.54;42.21;99737.19;4500145;31;33626;-63
2021/08/03 09:25:38;;;;;;;5.07;1.45;;;;;;;28.44;42.38;99746.16;4499791;31;34063;-64
2021/08/03 09:28:09;;;;;;;3.78;1.45;;;;;;;28.43;42.40;99739.03;4485241;31;34849;-64
2021/08/03 09:30:37;;;;;;;3.40;1.50;;;;;;;28.44;42.32;99736.00;4484569;32;34567;-64
2021/08/03 09:33:05;;;;;;;5.20;1.50;;;;;;;28.44;42.25;99746.16;4491939;31;33404;-71
2021/08/03 09:35:33;;;;;;;5.65;1.40;;;;;;;28.40;42.38;99745.06;4496754;31;33941;-65
2021/08/03 09:38:01;;;;;;;4.18;1.60;;;;;;;28.40;42.33;99745.06;4497968;31;34059;-66
2021/08/03 09:40:33;;;;;;;5.12;1.67;;;;;;;28.40;42.32;99737.66;4493629;31;34355;-62
2021/08/03 09:43:02;;;;;;;8.20;1.70;;;;;;;28.40;42.31;99743.13;4499265;31;33384;-63
2021/08/03 09:45:34;;;;;;;2.55;1.48;;;;;;;28.41;42.30;99741.22;4497983;31;34094;-63
2021/08/03 09:48:15;;;;;;;3.25;1.48;;;;;;;28.40;42.40;99737.66;4499395;31;34190;-63
2021/08/03 09:51:07;;;;;;;4.03;1.55;;;;;;;28.43;42.37;99728.03;4498369;31;34047;-63
2021/08/03 09:53:35;;;;;;;4.00;1.55;;;;;;;28.46;42.34;99728.34;4499827;31;34501;-63
2021/08/03 09:56:03;;;;;;;3.47;1.60;;;;;;;28.44;42.39;99725.03;4497828;31;33953;-62
2021/08/03 09:58:33;;;;;;;3.67;1.40;;;;;;;28.44;42.42;99719.53;4499835;31;34144;-63
2021/08/03 10:01:20;;;;;;;2.90;1.55;;;;;;;28.46;42.42;99720.13;4499080;31;33927;-63
2021/08/03 10:03:52;;;;;;;4.53;1.80;;;;;;;28.47;42.45;99720.94;4497750;31;32246;-63
2021/08/03 10:06:20;;;;;;;2.83;1.30;;;;;;;28.46;42.54;99724.78;4498450;31;34886;-62
2021/08/03 10:08:48;;;;;;;3.83;1.40;;;;;;;28.45;42.54;99723.12;4498857;31;35361;-63
2021/08/03 10:11:16;;;;;;;5.12;1.52;;;;;;;28.48;42.50;99725.34;4495756;31;33904;-62
2021/08/03 10:13:44;;;;;;;2.78;1.50;;;;;;;28.49;42.50;99729.72;4498684;31;33381;-63
2021/08/03 10:16:12;;;;;;;3.30;1.50;;;;;;;28.48;42.53;99719.84;4498402;31;34719;-63
2021/08/03 10:18:43;;;;;;;3.22;1.62;;;;;;;28.50;42.54;99722.34;4499529;31;33775;-63
2021/08/03 10:21:27;;;;;;;4.45;1.60;;;;;;;28.48;42.61;99722.59;4498647;31;34626;-62
2021/08/03 10:23:57;;;;;;;4.70;1.58;;;;;;;28.51;42.62;99710.28;4498320;31;33494;-63
2021/08/03 10:26:25;;;;;;;3.60;1.30;;;;;;;28.51;42.60;99719.34;4498758;31;33847;-64
2021/08/03 10:29:20;;;;;;;4.37;1.58;;;;;;;28.52;42.62;99711.94;4499361;31;33728;-65
2021/08/03 10:31:48;;;;;;;4.60;1.58;;;;;;;28.55;42.60;99709.50;4483462;32;34026;-63
2021/08/03 10:34:43;;;;;;;4.32;1.58;;;;;;;28.52;42.66;99717.41;4497580;31;32678;-64
2021/08/03 10:37:12;;;;;;;4.62;1.50;;;;;;;28.53;42.62;99714.41;4498105;31;33973;-64
2021/08/03 10:39:52;;;;;;;2.67;1.50;;;;;;;28.51;42.69;99711.09;4499929;31;33905;-63
2021/08/03 10:42:21;;;;;;;2.65;1.37;;;;;;;28.52;42.74;99711.94;4500089;31;34350;-63
2021/08/03 10:44:52;;;;;;;3.00;1.50;;;;;;;28.51;42.75;99722.06;4500158;31;33257;-65
2021/08/03 10:47:36;;;;;;;4.93;1.60;;;;;;;28.52;42.80;99715.50;4500384;31;34070;-66
2021/08/03 10:50:14;;;;;;;2.97;1.30;;;;;;;28.53;42.76;99711.66;4501325;31;34145;-64
2021/08/03 10:52:48;;;;;;;4.60;1.60;;;;;;;28.49;42.85;99707.78;4500391;31;34641;-66
2021/08/03 10:55:44;;;;;;;5.57;1.45;;;;;;;28.50;42.79;99694.91;4500074;31;33490;-66
2021/08/03 10:58:16;;;;;;;3.42;1.45;;;;;;;28.53;42.76;99699.84;4500999;31;34981;-66
2021/08/03 11:00:47;;;;;;;5.80;1.40;;;;;;;28.49;42.79;99696.78;4499860;31;33890;-65
2021/08/03 11:03:31;;;;;;;3.22;1.40;;;;;;;28.49;42.76;99696.78;4499983;31;33824;-66
2021/08/03 11:06:05;;;;;;;4.28;1.70;;;;;;;28.51;42.70;99705.59;4500532;31;34132;-64
2021/08/03 11:08:32;;;;;;;2.75;1.50;;;;;;;28.50;42.70;99705.88;4487055;31;33888;-63
2021/08/03 11:11:05;;;;;;;3.80;1.55;;;;;;;28.48;42.70;99703.37;4495531;31;33439;-64
2021/08/03 11:13:43;;;;;;;3.28;1.30;;;;;;;28.47;42.67;99690.75;4507567;31;34729;-63
2021/08/03 11:16:19;;;;;;;4.20;1.62;;;;;;;28.48;42.61;99695.16;4516528;31;33563;-62
2021/08/03 11:18:52;;;;;;;5.35;1.77;;;;;;;28.49;42.72;99688.56;4496622;31;34800;-64
2021/08/03 11:21:26;;;;;;;2.75;1.33;;;;;;;28.47;42.78;99680.59;4498532;31;35035;-63
2021/08/03 11:23:54;;;;;;;3.05;1.40;;;;;;;28.46;42.84;99678.94;4500969;31;34726;-62
2021/08/03 11:26:22;;;;;;;3.62;1.40;;;;;;;28.47;42.81;99677.03;4500380;31;34204;-62
2021/08/03 11:28:56;;;;;;;2.12;1.37;;;;;;;28.48;42.84;99667.69;4500047;31;35311;-63
2021/08/03 11:31:42;;;;;;;5.50;1.40;;;;;;;28.48;42.87;99665.78;4500845;31;34253;-62
2021/08/03 11:34:11;;;;;;;4.70;1.45;;;;;;;28.51;42.83;99661.69;4499787;31;33908;-64
2021/08/03 11:36:52;;;;;;;2.08;1.48;;;;;;;28.50;42.90;99661.97;4500058;31;33249;-65
2021/08/03 11:39:23;;;;;;;3.03;1.30;;;;;;;28.51;42.91;99653.47;4498026;31;33968;-64
2021/08/03 11:41:51;;;;;;;5.12;1.58;;;;;;;28.51;42.96;99650.72;4485080;32;33878;-63
2021/08/03 11:44:19;;;;;;;2.40;1.23;;;;;;;28.51;42.95;99642.47;4484877;31;34016;-63
2021/08/03 11:47:07;;;;;;;2.58;1.25;;;;;;;28.52;42.96;99622.16;4500632;31;33171;-63
2021/08/03 11:49:37;;;;;;;3.85;1.48;;;;;;;28.53;42.97;99612.84;4499390;31;34706;-64